sensor_id;sensor_type;location;lat;lon;timestamp;pressure;altitude;pressure_sealevel;temperature;humidity
53300;BME280;39187;48.476;8.310;2023-05-29T00:00:16;91356.34;;;14.02;53.95
53300;BME280;39187;48.476;8.310;2023-05-29T00:02:43;91353.69;;;14.02;53.91
53300;BME280;39187;48.476;8.310;2023-05-29T00:05:11;91351.47;;;13.88;54.30
53300;BME280;39187;48.476;8.310;2023-05-29T00:07:38;91351.75;;;14.03;53.81
53300;BME280;39187;48.476;8.310;2023-05-29T00:10:05;91356.69;;;13.92;53.93
53300;BME280;39187;48.476;8.310;2023-05-29T00:12:30;91352.50;;;14.03;53.88
53300;BME280;39187;48.476;8.310;2023-05-29T00:14:56;91352.72;;;13.84;54.30
53300;BME280;39187;48.476;8.310;2023-05-29T00:17:23;91349.44;;;13.80;54.15
53300;BME280;39187;48.476;8.310;2023-05-29T00:19:48;91347.38;;;13.84;54.26
53300;BME280;39187;48.476;8.310;2023-05-29T00:22:14;91351.78;;;13.78;54.42
53300;BME280;39187;48.476;8.310;2023-05-29T00:24:39;91334.97;;;13.77;53.94
53300;BME280;39187;48.476;8.310;2023-05-29T00:27:05;91345.88;;;13.83;54.00
53300;BME280;39187;48.476;8.310;2023-05-29T00:29:30;91335.53;;;13.72;54.19
53300;BME280;39187;48.476;8.310;2023-05-29T00:31:56;91334.00;;;13.84;54.05
53300;BME280;39187;48.476;8.310;2023-05-29T00:34:22;91327.47;;;13.85;53.64
53300;BME280;39187;48.476;8.310;2023-05-29T00:36:51;91335.66;;;13.69;54.43
53300;BME280;39187;48.476;8.310;2023-05-29T00:39:17;91331.66;;;13.73;54.27
53300;BME280;39187;48.476;8.310;2023-05-29T00:41:43;91334.69;;;13.75;54.35
53300;BME280;39187;48.476;8.310;2023-05-29T00:44:08;91328.22;;;13.85;53.72
53300;BME280;39187;48.476;8.310;2023-05-29T00:46:34;91324.19;;;13.81;54.09
53300;BME280;39187;48.476;8.310;2023-05-29T00:49:00;91331.25;;;13.62;54.36
53300;BME280;39187;48.476;8.310;2023-05-29T00:51:27;91334.69;;;13.62;54.29
53300;BME280;39187;48.476;8.310;2023-05-29T00:53:54;91342.38;;;13.35;55.25
53300;BME280;39187;48.476;8.310;2023-05-29T00:56:20;91327.94;;;13.45;55.35
53300;BME280;39187;48.476;8.310;2023-05-29T00:58:50;91335.31;;;13.67;54.48
53300;BME280;39187;48.476;8.310;2023-05-29T01:01:19;91329.09;;;13.44;55.38
53300;BME280;39187;48.476;8.310;2023-05-29T01:03:46;91332.00;;;13.37;55.61
53300;BME280;39187;48.476;8.310;2023-05-29T01:06:14;91323.53;;;13.39;55.56
53300;BME280;39187;48.476;8.310;2023-05-29T01:08:39;91329.44;;;13.46;55.66
53300;BME280;39187;48.476;8.310;2023-05-29T01:11:57;91330.66;;;13.04;56.73
53300;BME280;39187;48.476;8.310;2023-05-29T01:14:02;91335.94;;;13.20;56.37
53300;BME280;39187;48.476;8.310;2023-05-29T01:16:43;91338.81;;;13.13;57.10
53300;BME280;39187;48.476;8.310;2023-05-29T01:19:22;91341.06;;;13.27;56.56
53300;BME280;39187;48.476;8.310;2023-05-29T01:22:17;91346.25;;;13.05;57.24
53300;BME280;39187;48.476;8.310;2023-05-29T01:27:42;91340.81;;;13.09;56.91
53300;BME280;39187;48.476;8.310;2023-05-29T01:30:11;91332.63;;;13.16;56.56
53300;BME280;39187;48.476;8.310;2023-05-29T01:32:37;91335.03;;;13.10;56.53
53300;BME280;39187;48.476;8.310;2023-05-29T01:35:04;91326.53;;;13.15;56.37
53300;BME280;39187;48.476;8.310;2023-05-29T01:37:29;91340.03;;;12.96;56.97
53300;BME280;39187;48.476;8.310;2023-05-29T01:39:55;91329.91;;;13.03;56.96
53300;BME280;39187;48.476;8.310;2023-05-29T01:42:21;91327.88;;;13.07;56.71
53300;BME280;39187;48.476;8.310;2023-05-29T01:44:47;91332.75;;;12.96;57.49
53300;BME280;39187;48.476;8.310;2023-05-29T01:47:14;91329.47;;;12.92;57.58
53300;BME280;39187;48.476;8.310;2023-05-29T01:49:41;91334.03;;;12.92;57.57
53300;BME280;39187;48.476;8.310;2023-05-29T01:52:07;91337.72;;;12.69;59.09
53300;BME280;39187;48.476;8.310;2023-05-29T01:54:33;91336.91;;;12.56;59.43
53300;BME280;39187;48.476;8.310;2023-05-29T01:56:59;91346.00;;;12.58;60.10
53300;BME280;39187;48.476;8.310;2023-05-29T01:59:28;91332.75;;;12.55;60.02
53300;BME280;39187;48.476;8.310;2023-05-29T02:01:55;91339.53;;;12.72;59.52
53300;BME280;39187;48.476;8.310;2023-05-29T02:04:20;91329.81;;;12.65;59.87
53300;BME280;39187;48.476;8.310;2023-05-29T02:06:46;91335.97;;;12.62;59.83
53300;BME280;39187;48.476;8.310;2023-05-29T02:09:11;91331.38;;;12.63;59.96
53300;BME280;39187;48.476;8.310;2023-05-29T02:11:37;91329.56;;;12.60;59.72
53300;BME280;39187;48.476;8.310;2023-05-29T02:14:02;91322.69;;;12.46;60.19
53300;BME280;39187;48.476;8.310;2023-05-29T02:16:29;91329.53;;;12.47;60.28
53300;BME280;39187;48.476;8.310;2023-05-29T02:19:00;91323.09;;;12.44;60.71
53300;BME280;39187;48.476;8.310;2023-05-29T02:21:26;91313.59;;;12.43;60.64
53300;BME280;39187;48.476;8.310;2023-05-29T02:23:51;91320.53;;;12.41;61.04
53300;BME280;39187;48.476;8.310;2023-05-29T02:26:17;91324.13;;;12.34;61.60
53300;BME280;39187;48.476;8.310;2023-05-29T02:28:42;91326.56;;;12.29;61.46
53300;BME280;39187;48.476;8.310;2023-05-29T02:31:08;91327.00;;;12.27;62.12
53300;BME280;39187;48.476;8.310;2023-05-29T02:33:33;91321.25;;;12.29;61.95
53300;BME280;39187;48.476;8.310;2023-05-29T02:35:59;91327.06;;;12.24;62.21
53300;BME280;39187;48.476;8.310;2023-05-29T02:38:25;91319.88;;;12.37;61.46
53300;BME280;39187;48.476;8.310;2023-05-29T02:40:50;91318.81;;;12.34;61.94
53300;BME280;39187;48.476;8.310;2023-05-29T02:43:16;91321.28;;;12.41;61.25
53300;BME280;39187;48.476;8.310;2023-05-29T02:45:41;91325.34;;;12.46;61.08
53300;BME280;39187;48.476;8.310;2023-05-29T02:48:06;91323.91;;;12.29;62.14
53300;BME280;39187;48.476;8.310;2023-05-29T02:50:33;91318.63;;;12.41;61.56
53300;BME280;39187;48.476;8.310;2023-05-29T02:52:58;91323.22;;;12.25;62.31
53300;BME280;39187;48.476;8.310;2023-05-29T02:55:24;91320.03;;;12.30;62.51
53300;BME280;39187;48.476;8.310;2023-05-29T02:57:49;91318.47;;;12.32;62.09
53300;BME280;39187;48.476;8.310;2023-05-29T03:00:18;91321.88;;;12.33;62.46
53300;BME280;39187;48.476;8.310;2023-05-29T03:02:43;91321.28;;;12.41;61.75
53300;BME280;39187;48.476;8.310;2023-05-29T03:05:09;91314.75;;;12.42;62.12
53300;BME280;39187;48.476;8.310;2023-05-29T03:07:34;91310.91;;;12.15;62.56
53300;BME280;39187;48.476;8.310;2023-05-29T03:10:00;91316.78;;;12.10;63.05
53300;BME280;39187;48.476;8.310;2023-05-29T03:12:26;91310.41;;;12.03;63.27
53300;BME280;39187;48.476;8.310;2023-05-29T03:14:53;91304.72;;;12.18;62.58
53300;BME280;39187;48.476;8.310;2023-05-29T03:17:19;91311.22;;;12.17;62.73
53300;BME280;39187;48.476;8.310;2023-05-29T03:19:44;91308.66;;;12.13;63.44
53300;BME280;39187;48.476;8.310;2023-05-29T03:22:10;91306.16;;;12.22;62.87
53300;BME280;39187;48.476;8.310;2023-05-29T03:24:35;91303.44;;;12.10;63.33
53300;BME280;39187;48.476;8.310;2023-05-29T03:27:02;91298.41;;;12.12;63.15
53300;BME280;39187;48.476;8.310;2023-05-29T03:29:30;91307.72;;;12.20;62.93
53300;BME280;39187;48.476;8.310;2023-05-29T03:31:55;91319.28;;;12.00;64.07
53300;BME280;39187;48.476;8.310;2023-05-29T03:34:21;91301.69;;;12.03;64.04
53300;BME280;39187;48.476;8.310;2023-05-29T03:36:46;91309.75;;;11.99;63.89
53300;BME280;39187;48.476;8.310;2023-05-29T03:39:12;91308.78;;;12.10;64.18
53300;BME280;39187;48.476;8.310;2023-05-29T03:41:38;91305.84;;;12.04;64.18
53300;BME280;39187;48.476;8.310;2023-05-29T03:44:04;91313.53;;;12.02;64.48
53300;BME280;39187;48.476;8.310;2023-05-29T03:46:30;91301.41;;;12.14;64.38
53300;BME280;39187;48.476;8.310;2023-05-29T03:48:56;91306.28;;;12.02;64.50
53300;BME280;39187;48.476;8.310;2023-05-29T03:51:22;91308.78;;;12.10;64.27
53300;BME280;39187;48.476;8.310;2023-05-29T03:53:47;91308.44;;;12.08;64.14
53300;BME280;39187;48.476;8.310;2023-05-29T03:56:13;91313.75;;;12.08;64.05
53300;BME280;39187;48.476;8.310;2023-05-29T03:58:38;91310.81;;;12.18;63.20
53300;BME280;39187;48.476;8.310;2023-05-29T04:01:04;91313.53;;;12.31;63.22
53300;BME280;39187;48.476;8.310;2023-05-29T04:03:31;91318.66;;;12.54;62.41
53300;BME280;39187;48.476;8.310;2023-05-29T04:05:57;91316.78;;;12.67;61.25
53300;BME280;39187;48.476;8.310;2023-05-29T04:08:23;91310.47;;;12.74;60.89
53300;BME280;39187;48.476;8.310;2023-05-29T04:10:48;91312.94;;;12.81;60.18
53300;BME280;39187;48.476;8.310;2023-05-29T04:13:14;91314.69;;;12.88;60.22
53300;BME280;39187;48.476;8.310;2023-05-29T04:15:39;91318.56;;;12.99;59.27
53300;BME280;39187;48.476;8.310;2023-05-29T04:18:07;91319.69;;;13.27;57.91
53300;BME280;39187;48.476;8.310;2023-05-29T04:20:32;91316.94;;;13.56;57.61
53300;BME280;39187;48.476;8.310;2023-05-29T04:22:58;91322.56;;;13.58;56.70
53300;BME280;39187;48.476;8.310;2023-05-29T04:25:23;91321.72;;;13.48;57.24
53300;BME280;39187;48.476;8.310;2023-05-29T04:27:49;91330.16;;;13.72;56.88
53300;BME280;39187;48.476;8.310;2023-05-29T04:30:15;91323.00;;;13.94;55.19
53300;BME280;39187;48.476;8.310;2023-05-29T04:32:42;91332.72;;;14.01;55.45
53300;BME280;39187;48.476;8.310;2023-05-29T04:35:08;91336.72;;;14.31;54.72
53300;BME280;39187;48.476;8.310;2023-05-29T04:37:35;91339.91;;;14.51;53.47
53300;BME280;39187;48.476;8.310;2023-05-29T04:40:07;91343.38;;;14.26;53.77
53300;BME280;39187;48.476;8.310;2023-05-29T04:42:37;91329.38;;;14.57;53.23
53300;BME280;39187;48.476;8.310;2023-05-29T04:45:04;91332.28;;;14.50;53.06
53300;BME280;39187;48.476;8.310;2023-05-29T04:47:30;91336.59;;;14.69;53.21
53300;BME280;39187;48.476;8.310;2023-05-29T04:49:59;91344.38;;;14.54;52.80
53300;BME280;39187;48.476;8.310;2023-05-29T04:52:25;91348.81;;;14.92;51.57
53300;BME280;39187;48.476;8.310;2023-05-29T04:54:50;91350.84;;;15.84;49.73
53300;BME280;39187;48.476;8.310;2023-05-29T04:57:16;91353.06;;;15.85;49.11
53300;BME280;39187;48.476;8.310;2023-05-29T04:59:41;91353.00;;;15.67;49.10
53300;BME280;39187;48.476;8.310;2023-05-29T05:02:07;91358.28;;;16.38;47.92
53300;BME280;39187;48.476;8.310;2023-05-29T05:04:32;91360.59;;;16.67;47.10
53300;BME280;39187;48.476;8.310;2023-05-29T05:06:58;91361.06;;;15.67;48.15
53300;BME280;39187;48.476;8.310;2023-05-29T05:09:23;91364.28;;;16.51;47.21
53300;BME280;39187;48.476;8.310;2023-05-29T05:11:49;91361.34;;;16.09;47.59
53300;BME280;39187;48.476;8.310;2023-05-29T05:14:14;91362.09;;;16.86;46.67
53300;BME280;39187;48.476;8.310;2023-05-29T05:16:40;91355.47;;;17.23;45.34
53300;BME280;39187;48.476;8.310;2023-05-29T05:19:05;91360.19;;;17.56;45.21
53300;BME280;39187;48.476;8.310;2023-05-29T05:21:31;91360.81;;;17.60;44.50
53300;BME280;39187;48.476;8.310;2023-05-29T05:23:58;91369.94;;;17.62;44.61
53300;BME280;39187;48.476;8.310;2023-05-29T05:26:23;91362.19;;;18.54;42.34
53300;BME280;39187;48.476;8.310;2023-05-29T05:28:49;91359.66;;;19.66;40.67
53300;BME280;39187;48.476;8.310;2023-05-29T05:31:14;91363.06;;;18.84;42.24
53300;BME280;39187;48.476;8.310;2023-05-29T05:33:40;91366.94;;;19.07;41.25
53300;BME280;39187;48.476;8.310;2023-05-29T05:36:06;91378.69;;;18.56;42.26
53300;BME280;39187;48.476;8.310;2023-05-29T05:38:32;91371.03;;;17.98;44.10
53300;BME280;39187;48.476;8.310;2023-05-29T05:40:57;91367.69;;;19.07;41.74
53300;BME280;39187;48.476;8.310;2023-05-29T05:43:23;91365.34;;;19.15;41.42
53300;BME280;39187;48.476;8.310;2023-05-29T05:45:49;91371.50;;;19.01;42.02
53300;BME280;39187;48.476;8.310;2023-05-29T05:48:15;91365.53;;;19.65;41.20
53300;BME280;39187;48.476;8.310;2023-05-29T05:50:40;91370.47;;;20.30;39.45
53300;BME280;39187;48.476;8.310;2023-05-29T05:53:06;91368.50;;;20.46;39.15
53300;BME280;39187;48.476;8.310;2023-05-29T05:55:31;91369.44;;;20.42;38.86
53300;BME280;39187;48.476;8.310;2023-05-29T05:57:57;91370.28;;;19.70;39.66
53300;BME280;39187;48.476;8.310;2023-05-29T06:00:23;91370.19;;;20.43;39.81
53300;BME280;39187;48.476;8.310;2023-05-29T06:02:49;91370.94;;;21.45;38.66
53300;BME280;39187;48.476;8.310;2023-05-29T06:05:14;91385.47;;;22.25;36.68
53300;BME280;39187;48.476;8.310;2023-05-29T06:07:40;91379.75;;;21.66;37.25
53300;BME280;39187;48.476;8.310;2023-05-29T06:10:06;91390.75;;;21.31;37.14
53300;BME280;39187;48.476;8.310;2023-05-29T06:12:33;91397.00;;;20.81;37.96
53300;BME280;39187;48.476;8.310;2023-05-29T06:14:58;91384.88;;;20.07;38.51
53300;BME280;39187;48.476;8.310;2023-05-29T06:17:24;91386.25;;;20.67;39.33
53300;BME280;39187;48.476;8.310;2023-05-29T06:19:50;91383.94;;;20.60;38.73
53300;BME280;39187;48.476;8.310;2023-05-29T06:22:15;91385.78;;;21.29;37.77
53300;BME280;39187;48.476;8.310;2023-05-29T06:24:41;91386.00;;;21.77;36.79
53300;BME280;39187;48.476;8.310;2023-05-29T06:27:07;91391.41;;;21.97;36.72
53300;BME280;39187;48.476;8.310;2023-05-29T06:29:33;91390.50;;;21.80;37.76
53300;BME280;39187;48.476;8.310;2023-05-29T06:31:58;91401.81;;;21.33;38.13
53300;BME280;39187;48.476;8.310;2023-05-29T06:34:24;91395.31;;;21.96;37.43
53300;BME280;39187;48.476;8.310;2023-05-29T06:36:49;91401.53;;;22.03;36.62
53300;BME280;39187;48.476;8.310;2023-05-29T06:39:15;91396.41;;;20.72;38.61
53300;BME280;39187;48.476;8.310;2023-05-29T06:41:41;91392.31;;;21.17;38.54
53300;BME280;39187;48.476;8.310;2023-05-29T06:44:06;91402.00;;;21.95;38.11
53300;BME280;39187;48.476;8.310;2023-05-29T06:46:32;91400.97;;;22.24;37.02
53300;BME280;39187;48.476;8.310;2023-05-29T06:48:57;91406.03;;;21.34;37.95
53300;BME280;39187;48.476;8.310;2023-05-29T06:51:23;91407.22;;;22.36;36.65
53300;BME280;39187;48.476;8.310;2023-05-29T06:53:48;91400.41;;;22.46;36.51
53300;BME280;39187;48.476;8.310;2023-05-29T06:56:14;91407.34;;;22.90;36.62
53300;BME280;39187;48.476;8.310;2023-05-29T06:58:39;91401.06;;;22.35;36.68
53300;BME280;39187;48.476;8.310;2023-05-29T07:01:05;91406.28;;;21.82;36.71
53300;BME280;39187;48.476;8.310;2023-05-29T07:03:31;91404.94;;;21.97;36.70
53300;BME280;39187;48.476;8.310;2023-05-29T07:05:56;91410.16;;;21.75;37.32
53300;BME280;39187;48.476;8.310;2023-05-29T07:08:23;91416.41;;;22.75;35.96
53300;BME280;39187;48.476;8.310;2023-05-29T07:10:48;91418.72;;;22.57;35.84
53300;BME280;39187;48.476;8.310;2023-05-29T07:13:17;91418.31;;;22.69;37.41
53300;BME280;39187;48.476;8.310;2023-05-29T07:15:48;91428.09;;;23.46;35.90
53300;BME280;39187;48.476;8.310;2023-05-29T07:18:13;91420.81;;;22.42;35.93
53300;BME280;39187;48.476;8.310;2023-05-29T07:20:39;91420.84;;;21.64;37.23
53300;BME280;39187;48.476;8.310;2023-05-29T07:23:04;91431.06;;;21.49;37.83
53300;BME280;39187;48.476;8.310;2023-05-29T07:25:30;91421.00;;;22.01;38.21
53300;BME280;39187;48.476;8.310;2023-05-29T07:27:56;91428.72;;;21.36;38.54
53300;BME280;39187;48.476;8.310;2023-05-29T07:30:22;91431.13;;;21.80;37.54
53300;BME280;39187;48.476;8.310;2023-05-29T07:32:47;91426.13;;;21.73;37.36
53300;BME280;39187;48.476;8.310;2023-05-29T07:35:13;91425.09;;;22.54;37.09
53300;BME280;39187;48.476;8.310;2023-05-29T07:37:38;91427.94;;;23.13;36.57
53300;BME280;39187;48.476;8.310;2023-05-29T07:40:04;91436.06;;;23.55;35.45
53300;BME280;39187;48.476;8.310;2023-05-29T07:42:33;91430.72;;;22.76;35.03
53300;BME280;39187;48.476;8.310;2023-05-29T07:44:59;91437.31;;;21.00;37.72
53300;BME280;39187;48.476;8.310;2023-05-29T07:47:25;91445.28;;;22.16;37.52
53300;BME280;39187;48.476;8.310;2023-05-29T07:49:51;91436.47;;;21.95;36.67
53300;BME280;39187;48.476;8.310;2023-05-29T07:52:17;91446.72;;;21.65;36.71
53300;BME280;39187;48.476;8.310;2023-05-29T07:54:43;91442.50;;;20.63;37.90
53300;BME280;39187;48.476;8.310;2023-05-29T07:57:09;91440.75;;;20.60;38.36
53300;BME280;39187;48.476;8.310;2023-05-29T07:59:40;91452.47;;;20.57;38.19
53300;BME280;39187;48.476;8.310;2023-05-29T08:02:07;91453.97;;;21.13;38.03
53300;BME280;39187;48.476;8.310;2023-05-29T08:04:32;91465.94;;;20.22;38.47
53300;BME280;39187;48.476;8.310;2023-05-29T08:07:00;91458.69;;;19.84;38.63
53300;BME280;39187;48.476;8.310;2023-05-29T08:09:26;91445.97;;;19.46;38.48
53300;BME280;39187;48.476;8.310;2023-05-29T08:11:52;91477.00;;;19.65;39.99
53300;BME280;39187;48.476;8.310;2023-05-29T08:14:17;91471.75;;;19.61;40.28
53300;BME280;39187;48.476;8.310;2023-05-29T08:16:43;91464.91;;;19.37;40.47
53300;BME280;39187;48.476;8.310;2023-05-29T08:19:08;91439.09;;;20.03;40.20
53300;BME280;39187;48.476;8.310;2023-05-29T08:21:34;91447.19;;;19.74;39.45
53300;BME280;39187;48.476;8.310;2023-05-29T08:24:01;91449.91;;;20.33;39.32
53300;BME280;39187;48.476;8.310;2023-05-29T08:26:27;91447.47;;;20.50;38.06
53300;BME280;39187;48.476;8.310;2023-05-29T08:28:52;91435.16;;;21.18;38.14
53300;BME280;39187;48.476;8.310;2023-05-29T08:31:18;91456.56;;;20.67;37.31
53300;BME280;39187;48.476;8.310;2023-05-29T08:33:44;91460.63;;;20.42;37.74
53300;BME280;39187;48.476;8.310;2023-05-29T08:36:10;91452.03;;;19.32;39.34
53300;BME280;39187;48.476;8.310;2023-05-29T08:38:36;91454.91;;;19.52;38.86
53300;BME280;39187;48.476;8.310;2023-05-29T08:41:02;91465.31;;;19.59;40.04
53300;BME280;39187;48.476;8.310;2023-05-29T08:43:31;91444.53;;;19.12;39.96
53300;BME280;39187;48.476;8.310;2023-05-29T08:46:00;91450.00;;;19.94;39.26
53300;BME280;39187;48.476;8.310;2023-05-29T08:48:27;91457.91;;;20.57;37.69
53300;BME280;39187;48.476;8.310;2023-05-29T08:50:55;91465.72;;;18.80;40.26
53300;BME280;39187;48.476;8.310;2023-05-29T08:53:25;91441.16;;;19.65;39.20
53300;BME280;39187;48.476;8.310;2023-05-29T08:55:51;91454.19;;;18.38;40.18
53300;BME280;39187;48.476;8.310;2023-05-29T08:58:19;91449.75;;;18.92;40.44
53300;BME280;39187;48.476;8.310;2023-05-29T09:00:46;91486.25;;;18.78;40.96
53300;BME280;39187;48.476;8.310;2023-05-29T09:03:12;91453.28;;;19.84;39.87
53300;BME280;39187;48.476;8.310;2023-05-29T09:05:41;91470.59;;;19.92;40.36
53300;BME280;39187;48.476;8.310;2023-05-29T09:08:11;91455.31;;;19.74;39.95
53300;BME280;39187;48.476;8.310;2023-05-29T09:10:41;91464.22;;;19.51;40.44
53300;BME280;39187;48.476;8.310;2023-05-29T09:13:07;91466.38;;;19.38;40.77
53300;BME280;39187;48.476;8.310;2023-05-29T09:15:34;91476.94;;;18.46;40.24
53300;BME280;39187;48.476;8.310;2023-05-29T09:18:01;91470.22;;;19.07;40.03
53300;BME280;39187;48.476;8.310;2023-05-29T09:20:27;91489.72;;;19.26;40.52
53300;BME280;39187;48.476;8.310;2023-05-29T09:22:57;91484.94;;;18.97;41.71
53300;BME280;39187;48.476;8.310;2023-05-29T09:25:24;91494.91;;;18.82;40.25
53300;BME280;39187;48.476;8.310;2023-05-29T09:28:06;91478.03;;;18.72;41.07
53300;BME280;39187;48.476;8.310;2023-05-29T09:30:36;91463.47;;;19.03;41.21
53300;BME280;39187;48.476;8.310;2023-05-29T09:33:03;91471.75;;;18.99;41.21
53300;BME280;39187;48.476;8.310;2023-05-29T09:35:41;91477.44;;;19.40;40.54
53300;BME280;39187;48.476;8.310;2023-05-29T09:38:08;91488.13;;;19.96;40.91
53300;BME280;39187;48.476;8.310;2023-05-29T09:40:38;91465.66;;;20.20;39.90
53300;BME280;39187;48.476;8.310;2023-05-29T09:43:18;91468.41;;;19.67;40.27
53300;BME280;39187;48.476;8.310;2023-05-29T09:45:47;91473.00;;;20.19;39.38
53300;BME280;39187;48.476;8.310;2023-05-29T09:48:17;91471.59;;;20.24;39.25
53300;BME280;39187;48.476;8.310;2023-05-29T09:50:44;91479.63;;;20.18;39.26
53300;BME280;39187;48.476;8.310;2023-05-29T09:53:20;91482.91;;;19.54;40.06
53300;BME280;39187;48.476;8.310;2023-05-29T09:55:47;91483.94;;;19.33;39.32
53300;BME280;39187;48.476;8.310;2023-05-29T09:58:14;91479.78;;;19.32;39.55
53300;BME280;39187;48.476;8.310;2023-05-29T10:00:45;91471.03;;;19.37;40.64
53300;BME280;39187;48.476;8.310;2023-05-29T10:03:11;91477.97;;;18.49;40.60
53300;BME280;39187;48.476;8.310;2023-05-29T10:05:41;91485.41;;;18.63;41.71
53300;BME280;39187;48.476;8.310;2023-05-29T10:08:14;91477.47;;;19.16;40.88
53300;BME280;39187;48.476;8.310;2023-05-29T10:10:43;91485.50;;;19.01;41.14
53300;BME280;39187;48.476;8.310;2023-05-29T10:13:11;91474.13;;;19.21;40.79
53300;BME280;39187;48.476;8.310;2023-05-29T10:15:37;91481.41;;;18.58;41.64
53300;BME280;39187;48.476;8.310;2023-05-29T10:18:31;91476.56;;;18.95;40.72
53300;BME280;39187;48.476;8.310;2023-05-29T10:21:00;91478.22;;;18.69;41.23
53300;BME280;39187;48.476;8.310;2023-05-29T10:23:28;91470.94;;;19.08;40.80
53300;BME280;39187;48.476;8.310;2023-05-29T10:25:59;91472.94;;;18.74;40.03
53300;BME280;39187;48.476;8.310;2023-05-29T10:28:27;91475.97;;;19.15;40.61
53300;BME280;39187;48.476;8.310;2023-05-29T10:31:05;91481.84;;;18.57;41.68
53300;BME280;39187;48.476;8.310;2023-05-29T10:36:30;91477.53;;;18.83;40.76
53300;BME280;39187;48.476;8.310;2023-05-29T10:38:57;91474.56;;;19.67;39.57
53300;BME280;39187;48.476;8.310;2023-05-29T10:43:57;91473.56;;;19.41;40.67
53300;BME280;39187;48.476;8.310;2023-05-29T10:49:21;91463.13;;;19.87;40.42
53300;BME280;39187;48.476;8.310;2023-05-29T10:51:47;91458.47;;;20.17;40.69
53300;BME280;39187;48.476;8.310;2023-05-29T10:54:13;91466.94;;;20.24;41.90
53300;BME280;39187;48.476;8.310;2023-05-29T10:56:39;91462.84;;;21.13;39.87
53300;BME280;39187;48.476;8.310;2023-05-29T10:59:07;91460.53;;;20.36;39.39
53300;BME280;39187;48.476;8.310;2023-05-29T11:01:33;91457.16;;;19.97;39.94
53300;BME280;39187;48.476;8.310;2023-05-29T11:04:26;91490.44;;;19.89;40.01
53300;BME280;39187;48.476;8.310;2023-05-29T11:06:52;91469.66;;;19.42;40.42
53300;BME280;39187;48.476;8.310;2023-05-29T11:09:37;91494.97;;;19.20;40.66
53300;BME280;39187;48.476;8.310;2023-05-29T11:14:55;91495.84;;;18.37;41.24
53300;BME280;39187;48.476;8.310;2023-05-29T11:20:07;91476.59;;;18.62;41.70
53300;BME280;39187;48.476;8.310;2023-05-29T11:25:15;91477.06;;;18.85;42.50
53300;BME280;39187;48.476;8.310;2023-05-29T11:27:43;91480.44;;;18.70;41.74
53300;BME280;39187;48.476;8.310;2023-05-29T11:30:09;91477.06;;;18.52;42.07
53300;BME280;39187;48.476;8.310;2023-05-29T11:32:36;91476.84;;;18.73;40.98
53300;BME280;39187;48.476;8.310;2023-05-29T11:35:09;91472.09;;;18.68;42.53
53300;BME280;39187;48.476;8.310;2023-05-29T11:37:38;91493.97;;;18.94;42.56
53300;BME280;39187;48.476;8.310;2023-05-29T11:40:06;91483.69;;;18.41;41.29
53300;BME280;39187;48.476;8.310;2023-05-29T11:42:32;91469.16;;;18.81;42.04
53300;BME280;39187;48.476;8.310;2023-05-29T11:45:18;91471.47;;;18.64;41.41
53300;BME280;39187;48.476;8.310;2023-05-29T11:47:54;91463.50;;;18.70;42.14
53300;BME280;39187;48.476;8.310;2023-05-29T11:50:22;91473.25;;;18.25;42.98
53300;BME280;39187;48.476;8.310;2023-05-29T11:52:48;91462.16;;;18.32;43.03
53300;BME280;39187;48.476;8.310;2023-05-29T11:55:14;91468.78;;;18.22;43.08
53300;BME280;39187;48.476;8.310;2023-05-29T11:57:40;91465.50;;;18.18;42.60
53300;BME280;39187;48.476;8.310;2023-05-29T12:00:07;91468.38;;;18.57;42.77
53300;BME280;39187;48.476;8.310;2023-05-29T12:02:36;91480.06;;;18.44;43.12
53300;BME280;39187;48.476;8.310;2023-05-29T12:05:06;91475.00;;;18.47;41.61
53300;BME280;39187;48.476;8.310;2023-05-29T12:07:37;91463.13;;;18.53;41.87
53300;BME280;39187;48.476;8.310;2023-05-29T12:10:10;91461.75;;;18.67;42.53
53300;BME280;39187;48.476;8.310;2023-05-29T12:12:36;91468.94;;;18.19;42.99
53300;BME280;39187;48.476;8.310;2023-05-29T12:15:02;91474.13;;;18.31;44.54
53300;BME280;39187;48.476;8.310;2023-05-29T12:17:31;91467.94;;;18.49;43.92
53300;BME280;39187;48.476;8.310;2023-05-29T12:19:56;91474.81;;;18.08;44.98
53300;BME280;39187;48.476;8.310;2023-05-29T12:22:36;91482.44;;;18.61;43.66
53300;BME280;39187;48.476;8.310;2023-05-29T12:25:10;91476.25;;;18.36;43.83
53300;BME280;39187;48.476;8.310;2023-05-29T12:27:44;91470.91;;;18.60;43.87
53300;BME280;39187;48.476;8.310;2023-05-29T12:30:21;91487.00;;;18.36;42.78
53300;BME280;39187;48.476;8.310;2023-05-29T12:32:49;91487.22;;;18.66;44.35
53300;BME280;39187;48.476;8.310;2023-05-29T12:35:21;91466.00;;;18.50;42.65
53300;BME280;39187;48.476;8.310;2023-05-29T12:37:55;91478.06;;;18.63;43.81
53300;BME280;39187;48.476;8.310;2023-05-29T12:40:22;91464.97;;;18.80;44.87
53300;BME280;39187;48.476;8.310;2023-05-29T12:42:52;91477.72;;;18.79;44.28
53300;BME280;39187;48.476;8.310;2023-05-29T12:45:18;91478.47;;;19.04;44.49
53300;BME280;39187;48.476;8.310;2023-05-29T12:47:54;91479.31;;;19.10;44.81
53300;BME280;39187;48.476;8.310;2023-05-29T12:50:42;91474.50;;;18.90;44.83
53300;BME280;39187;48.476;8.310;2023-05-29T12:53:12;91481.91;;;19.04;44.20
53300;BME280;39187;48.476;8.310;2023-05-29T12:55:41;91474.94;;;18.89;45.62
53300;BME280;39187;48.476;8.310;2023-05-29T12:58:09;91483.06;;;19.12;45.27
53300;BME280;39187;48.476;8.310;2023-05-29T13:00:36;91493.66;;;18.92;45.77
53300;BME280;39187;48.476;8.310;2023-05-29T13:03:02;91479.84;;;18.75;46.48
53300;BME280;39187;48.476;8.310;2023-05-29T13:05:28;91498.84;;;19.05;46.33
53300;BME280;39187;48.476;8.310;2023-05-29T13:07:54;91501.84;;;18.74;46.77
53300;BME280;39187;48.476;8.310;2023-05-29T13:10:20;91507.16;;;18.92;48.46
53300;BME280;39187;48.476;8.310;2023-05-29T13:12:47;91516.25;;;18.20;47.23
53300;BME280;39187;48.476;8.310;2023-05-29T13:15:14;91483.41;;;18.39;46.93
53300;BME280;39187;48.476;8.310;2023-05-29T13:17:40;91504.00;;;18.52;45.87
53300;BME280;39187;48.476;8.310;2023-05-29T13:20:11;91489.38;;;18.43;45.53